sensor_id;sensor_type;location;lat;lon;timestamp;temperature;humidity
15355;DHT22;7777;52.254;9.618;2023-11-22T00:01:04;4.40;99.90
15355;DHT22;7777;52.254;9.618;2023-11-22T00:03:30;4.40;99.90
15355;DHT22;7777;52.254;9.618;2023-11-22T00:05:58;4.30;99.90
15355;DHT22;7777;52.254;9.618;2023-11-22T00:08:24;4.20;99.90
15355;DHT22;7777;52.254;9.618;2023-11-22T00:10:50;4.20;99.90
15355;DHT22;7777;52.254;9.618;2023-11-22T00:13:16;4.10;99.90
15355;DHT22;7777;52.254;9.618;2023-11-22T00:15:43;4.10;99.90
15355;DHT22;7777;52.254;9.618;2023-11-22T00:18:09;4.10;99.90
15355;DHT22;7777;52.254;9.618;2023-11-22T00:20:35;4.00;99.90
15355;DHT22;7777;52.254;9.618;2023-11-22T00:23:00;3.90;99.90
15355;DHT22;7777;52.254;9.618;2023-11-22T00:25:26;3.90;99.90
15355;DHT22;7777;52.254;9.618;2023-11-22T00:27:53;3.80;99.90
15355;DHT22;7777;52.254;9.618;2023-11-22T00:30:20;3.70;99.90
15355;DHT22;7777;52.254;9.618;2023-11-22T00:32:46;3.80;99.90
15355;DHT22;7777;52.254;9.618;2023-11-22T00:35:12;3.70;99.90
15355;DHT22;7777;52.254;9.618;2023-11-22T00:37:38;3.70;99.90
15355;DHT22;7777;52.254;9.618;2023-11-22T00:40:06;3.60;99.90
15355;DHT22;7777;52.254;9.618;2023-11-22T00:42:39;3.60;99.90
15355;DHT22;7777;52.254;9.618;2023-11-22T00:45:07;3.50;99.90
15355;DHT22;7777;52.254;9.618;2023-11-22T00:47:33;3.50;99.90
15355;DHT22;7777;52.254;9.618;2023-11-22T00:49:59;3.40;99.90
15355;DHT22;7777;52.254;9.618;2023-11-22T00:52:25;3.40;99.90
15355;DHT22;7777;52.254;9.618;2023-11-22T00:54:52;3.30;99.90
15355;DHT22;7777;52.254;9.618;2023-11-22T00:57:18;3.30;99.90
15355;DHT22;7777;52.254;9.618;2023-11-22T00:59:43;3.20;99.90
15355;DHT22;7777;52.254;9.618;2023-11-22T01:02:09;3.20;99.90
15355;DHT22;7777;52.254;9.618;2023-11-22T01:04:35;3.20;99.90
15355;DHT22;7777;52.254;9.618;2023-11-22T01:07:03;3.20;99.90
15355;DHT22;7777;52.254;9.618;2023-11-22T01:09:32;3.10;99.90
15355;DHT22;7777;52.254;9.618;2023-11-22T01:12:01;3.10;99.90
15355;DHT22;7777;52.254;9.618;2023-11-22T01:14:27;3.00;99.90
15355;DHT22;7777;52.254;9.618;2023-11-22T01:16:55;3.00;99.90
15355;DHT22;7777;52.254;9.618;2023-11-22T01:19:21;3.00;99.90
15355;DHT22;7777;52.254;9.618;2023-11-22T01:21:47;2.90;99.90
15355;DHT22;7777;52.254;9.618;2023-11-22T01:24:15;2.90;99.90
15355;DHT22;7777;52.254;9.618;2023-11-22T01:26:41;2.90;99.90
15355;DHT22;7777;52.254;9.618;2023-11-22T01:29:07;2.90;99.90
15355;DHT22;7777;52.254;9.618;2023-11-22T01:31:33;2.80;99.90
15355;DHT22;7777;52.254;9.618;2023-11-22T01:33:59;2.80;99.90
15355;DHT22;7777;52.254;9.618;2023-11-22T01:36:26;2.80;99.90
15355;DHT22;7777;52.254;9.618;2023-11-22T01:38:53;2.70;99.90
15355;DHT22;7777;52.254;9.618;2023-11-22T01:41:20;2.70;99.90
15355;DHT22;7777;52.254;9.618;2023-11-22T01:43:46;2.70;99.90
15355;DHT22;7777;52.254;9.618;2023-11-22T01:46:22;2.60;99.90
15355;DHT22;7777;52.254;9.618;2023-11-22T01:48:52;2.60;99.90
15355;DHT22;7777;52.254;9.618;2023-11-22T01:51:22;2.60;99.90
15355;DHT22;7777;52.254;9.618;2023-11-22T01:53:51;2.60;99.90
15355;DHT22;7777;52.254;9.618;2023-11-22T01:56:20;2.50;99.90
15355;DHT22;7777;52.254;9.618;2023-11-22T01:58:47;2.50;99.90
15355;DHT22;7777;52.254;9.618;2023-11-22T02:01:13;2.50;99.90
15355;DHT22;7777;52.254;9.618;2023-11-22T02:03:39;2.50;99.90
15355;DHT22;7777;52.254;9.618;2023-11-22T02:06:05;2.40;99.90
15355;DHT22;7777;52.254;9.618;2023-11-22T02:08:32;2.40;99.90
15355;DHT22;7777;52.254;9.618;2023-11-22T02:10:58;2.40;99.90
15355;DHT22;7777;52.254;9.618;2023-11-22T02:13:24;2.40;99.90
15355;DHT22;7777;52.254;9.618;2023-11-22T02:15:50;2.30;99.90
15355;DHT22;7777;52.254;9.618;2023-11-22T02:18:16;2.30;99.90
15355;DHT22;7777;52.254;9.618;2023-11-22T02:20:42;2.30;99.90
15355;DHT22;7777;52.254;9.618;2023-11-22T02:23:10;2.30;99.90
15355;DHT22;7777;52.254;9.618;2023-11-22T02:25:36;2.30;99.90
15355;DHT22;7777;52.254;9.618;2023-11-22T02:28:02;2.30;99.90
15355;DHT22;7777;52.254;9.618;2023-11-22T02:30:29;2.30;99.90
15355;DHT22;7777;52.254;9.618;2023-11-22T02:32:55;2.20;99.90
15355;DHT22;7777;52.254;9.618;2023-11-22T02:35:21;2.20;99.90
15355;DHT22;7777;52.254;9.618;2023-11-22T02:37:48;2.20;99.90
15355;DHT22;7777;52.254;9.618;2023-11-22T02:40:17;2.20;99.90
15355;DHT22;7777;52.254;9.618;2023-11-22T02:42:51;2.20;99.90
15355;DHT22;7777;52.254;9.618;2023-11-22T02:45:27;2.20;99.90
15355;DHT22;7777;52.254;9.618;2023-11-22T02:47:54;2.10;99.90
15355;DHT22;7777;52.254;9.618;2023-11-22T02:50:20;2.10;99.90
15355;DHT22;7777;52.254;9.618;2023-11-22T02:52:47;2.10;99.90
15355;DHT22;7777;52.254;9.618;2023-11-22T02:55:12;2.10;99.90
15355;DHT22;7777;52.254;9.618;2023-11-22T02:57:41;2.10;99.90
15355;DHT22;7777;52.254;9.618;2023-11-22T03:00:07;2.10;99.90
15355;DHT22;7777;52.254;9.618;2023-11-22T03:02:34;2.00;99.90
15355;DHT22;7777;52.254;9.618;2023-11-22T03:05:00;2.10;99.90
15355;DHT22;7777;52.254;9.618;2023-11-22T03:07:26;2.10;99.90
15355;DHT22;7777;52.254;9.618;2023-11-22T03:09:53;2.10;99.90
15355;DHT22;7777;52.254;9.618;2023-11-22T03:12:19;2.00;99.90
15355;DHT22;7777;52.254;9.618;2023-11-22T03:14:48;2.00;99.90
15355;DHT22;7777;52.254;9.618;2023-11-22T03:17:15;2.00;99.90
15355;DHT22;7777;52.254;9.618;2023-11-22T03:19:41;2.00;99.90
15355;DHT22;7777;52.254;9.618;2023-11-22T03:22:06;2.00;99.90
15355;DHT22;7777;52.254;9.618;2023-11-22T03:24:33;2.00;99.90
15355;DHT22;7777;52.254;9.618;2023-11-22T03:27:03;2.00;99.90
15355;DHT22;7777;52.254;9.618;2023-11-22T03:29:29;2.00;99.90
15355;DHT22;7777;52.254;9.618;2023-11-22T03:31:55;2.00;99.90
15355;DHT22;7777;52.254;9.618;2023-11-22T03:34:21;2.00;99.90
15355;DHT22;7777;52.254;9.618;2023-11-22T03:36:47;2.00;99.90
15355;DHT22;7777;52.254;9.618;2023-11-22T03:39:15;2.00;99.90
15355;DHT22;7777;52.254;9.618;2023-11-22T03:41:41;2.00;99.90
15355;DHT22;7777;52.254;9.618;2023-11-22T03:44:08;2.00;99.90
15355;DHT22;7777;52.254;9.618;2023-11-22T03:46:35;2.00;99.90
15355;DHT22;7777;52.254;9.618;2023-11-22T03:49:02;1.90;99.90
15355;DHT22;7777;52.254;9.618;2023-11-22T03:51:32;1.90;99.90
15355;DHT22;7777;52.254;9.618;2023-11-22T03:53:59;1.90;99.90
15355;DHT22;7777;52.254;9.618;2023-11-22T03:56:25;1.90;99.90
15355;DHT22;7777;52.254;9.618;2023-11-22T03:58:51;1.90;99.90
15355;DHT22;7777;52.254;9.618;2023-11-22T04:01:17;1.90;99.90
15355;DHT22;7777;52.254;9.618;2023-11-22T04:03:44;2.00;99.90
15355;DHT22;7777;52.254;9.618;2023-11-22T04:06:09;1.90;99.90
15355;DHT22;7777;52.254;9.618;2023-11-22T04:08:35;1.90;99.90
15355;DHT22;7777;52.254;9.618;2023-11-22T04:11:03;1.90;99.90
15355;DHT22;7777;52.254;9.618;2023-11-22T04:13:31;1.90;99.90
15355;DHT22;7777;52.254;9.618;2023-11-22T04:15:57;1.90;99.90
15355;DHT22;7777;52.254;9.618;2023-11-22T04:18:22;1.90;99.90
15355;DHT22;7777;52.254;9.618;2023-11-22T04:20:49;1.90;99.90
15355;DHT22;7777;52.254;9.618;2023-11-22T04:23:15;1.90;99.90
15355;DHT22;7777;52.254;9.618;2023-11-22T04:25:41;1.90;99.90
15355;DHT22;7777;52.254;9.618;2023-11-22T04:28:07;1.90;99.90
15355;DHT22;7777;52.254;9.618;2023-11-22T04:30:36;1.90;99.90
15355;DHT22;7777;52.254;9.618;2023-11-22T04:33:02;1.90;99.90
15355;DHT22;7777;52.254;9.618;2023-11-22T04:35:28;1.90;99.90
15355;DHT22;7777;52.254;9.618;2023-11-22T04:37:54;1.90;99.90
15355;DHT22;7777;52.254;9.618;2023-11-22T04:40:21;1.90;99.90
15355;DHT22;7777;52.254;9.618;2023-11-22T04:42:47;1.80;99.90
15355;DHT22;7777;52.254;9.618;2023-11-22T04:45:13;1.80;99.90
15355;DHT22;7777;52.254;9.618;2023-11-22T04:47:40;1.80;99.90
15355;DHT22;7777;52.254;9.618;2023-11-22T04:50:06;1.80;99.90
15355;DHT22;7777;52.254;9.618;2023-11-22T04:52:32;1.80;99.90
15355;DHT22;7777;52.254;9.618;2023-11-22T04:54:58;1.90;99.90
15355;DHT22;7777;52.254;9.618;2023-11-22T04:57:24;1.80;99.90
15355;DHT22;7777;52.254;9.618;2023-11-22T04:59:49;1.80;99.90
15355;DHT22;7777;52.254;9.618;2023-11-22T05:02:16;1.80;99.90
15355;DHT22;7777;52.254;9.618;2023-11-22T05:04:41;1.80;99.90
15355;DHT22;7777;52.254;9.618;2023-11-22T05:07:08;1.80;99.90
15355;DHT22;7777;52.254;9.618;2023-11-22T05:09:34;1.80;99.90
15355;DHT22;7777;52.254;9.618;2023-11-22T05:12:00;1.70;99.90
15355;DHT22;7777;52.254;9.618;2023-11-22T05:14:26;1.70;99.90
15355;DHT22;7777;52.254;9.618;2023-11-22T05:16:53;1.70;99.90
15355;DHT22;7777;52.254;9.618;2023-11-22T05:19:19;1.70;99.90
15355;DHT22;7777;52.254;9.618;2023-11-22T05:21:44;1.70;99.90
15355;DHT22;7777;52.254;9.618;2023-11-22T05:24:10;1.70;99.90
15355;DHT22;7777;52.254;9.618;2023-11-22T05:26:36;1.60;99.90
15355;DHT22;7777;52.254;9.618;2023-11-22T05:29:03;1.60;99.90
15355;DHT22;7777;52.254;9.618;2023-11-22T05:31:30;1.60;99.90
15355;DHT22;7777;52.254;9.618;2023-11-22T05:33:55;1.60;99.90
15355;DHT22;7777;52.254;9.618;2023-11-22T05:36:21;1.60;99.90
15355;DHT22;7777;52.254;9.618;2023-11-22T05:38:47;1.60;99.90
15355;DHT22;7777;52.254;9.618;2023-11-22T05:41:13;1.60;99.90
15355;DHT22;7777;52.254;9.618;2023-11-22T05:43:38;1.60;99.90
15355;DHT22;7777;52.254;9.618;2023-11-22T05:46:08;1.50;99.90
15355;DHT22;7777;52.254;9.618;2023-11-22T05:48:34;1.50;99.90
15355;DHT22;7777;52.254;9.618;2023-11-22T05:51:00;1.50;99.90
15355;DHT22;7777;52.254;9.618;2023-11-22T05:53:26;1.50;99.90
15355;DHT22;7777;52.254;9.618;2023-11-22T05:55:52;1.50;99.90
15355;DHT22;7777;52.254;9.618;2023-11-22T05:58:18;1.50;99.90
15355;DHT22;7777;52.254;9.618;2023-11-22T06:00:44;1.50;99.90
15355;DHT22;7777;52.254;9.618;2023-11-22T06:03:11;1.50;99.90
15355;DHT22;7777;52.254;9.618;2023-11-22T06:05:41;1.40;99.90
15355;DHT22;7777;52.254;9.618;2023-11-22T06:08:08;1.40;99.90
15355;DHT22;7777;52.254;9.618;2023-11-22T06:10:34;1.40;99.90
15355;DHT22;7777;52.254;9.618;2023-11-22T06:13:00;1.40;99.90
15355;DHT22;7777;52.254;9.618;2023-11-22T06:15:26;1.40;99.90
15355;DHT22;7777;52.254;9.618;2023-11-22T06:17:52;1.30;99.90
15355;DHT22;7777;52.254;9.618;2023-11-22T06:20:18;1.40;99.90
15355;DHT22;7777;52.254;9.618;2023-11-22T06:22:44;1.30;99.90
15355;DHT22;7777;52.254;9.618;2023-11-22T06:25:10;1.30;99.90
15355;DHT22;7777;52.254;9.618;2023-11-22T06:27:40;1.30;99.90
15355;DHT22;7777;52.254;9.618;2023-11-22T06:30:06;1.30;99.90
15355;DHT22;7777;52.254;9.618;2023-11-22T06:32:34;1.30;99.90
15355;DHT22;7777;52.254;9.618;2023-11-22T06:35:00;1.20;99.90
15355;DHT22;7777;52.254;9.618;2023-11-22T06:37:26;1.20;99.90
15355;DHT22;7777;52.254;9.618;2023-11-22T06:39:55;1.20;99.90
15355;DHT22;7777;52.254;9.618;2023-11-22T06:42:22;1.20;99.90
15355;DHT22;7777;52.254;9.618;2023-11-22T06:44:48;1.20;99.90
15355;DHT22;7777;52.254;9.618;2023-11-22T06:47:15;1.20;99.90
15355;DHT22;7777;52.254;9.618;2023-11-22T06:49:40;1.10;99.90
15355;DHT22;7777;52.254;9.618;2023-11-22T06:52:07;1.10;99.90
15355;DHT22;7777;52.254;9.618;2023-11-22T06:54:34;1.10;99.90
15355;DHT22;7777;52.254;9.618;2023-11-22T06:57:00;1.10;99.90
15355;DHT22;7777;52.254;9.618;2023-11-22T06:59:26;1.10;99.90
15355;DHT22;7777;52.254;9.618;2023-11-22T07:01:52;1.10;99.90
15355;DHT22;7777;52.254;9.618;2023-11-22T07:04:17;1.10;99.90
15355;DHT22;7777;52.254;9.618;2023-11-22T07:06:43;1.10;99.90
15355;DHT22;7777;52.254;9.618;2023-11-22T07:09:09;1.10;99.90
15355;DHT22;7777;52.254;9.618;2023-11-22T07:11:35;1.10;99.90
15355;DHT22;7777;52.254;9.618;2023-11-22T07:14:02;1.00;99.90
15355;DHT22;7777;52.254;9.618;2023-11-22T07:16:30;1.00;99.90
15355;DHT22;7777;52.254;9.618;2023-11-22T07:18:56;1.00;99.90
15355;DHT22;7777;52.254;9.618;2023-11-22T07:21:22;1.10;99.90
15355;DHT22;7777;52.254;9.618;2023-11-22T07:23:48;1.00;99.90
15355;DHT22;7777;52.254;9.618;2023-11-22T07:26:14;1.00;99.90
15355;DHT22;7777;52.254;9.618;2023-11-22T07:28:40;1.10;99.90
15355;DHT22;7777;52.254;9.618;2023-11-22T07:31:08;1.10;99.90
15355;DHT22;7777;52.254;9.618;2023-11-22T07:33:35;1.10;99.90
15355;DHT22;7777;52.254;9.618;2023-11-22T07:36:01;1.10;99.90
15355;DHT22;7777;52.254;9.618;2023-11-22T07:38:28;1.10;99.90
15355;DHT22;7777;52.254;9.618;2023-11-22T07:40:54;1.10;99.90
15355;DHT22;7777;52.254;9.618;2023-11-22T07:43:22;1.10;99.90
15355;DHT22;7777;52.254;9.618;2023-11-22T07:45:47;1.10;99.90
15355;DHT22;7777;52.254;9.618;2023-11-22T07:48:14;1.20;99.90
15355;DHT22;7777;52.254;9.618;2023-11-22T07:50:40;1.20;99.90
15355;DHT22;7777;52.254;9.618;2023-11-22T07:53:09;1.20;99.90
15355;DHT22;7777;52.254;9.618;2023-11-22T07:55:37;1.20;99.90
15355;DHT22;7777;52.254;9.618;2023-11-22T07:58:04;1.30;99.90
15355;DHT22;7777;52.254;9.618;2023-11-22T08:00:35;1.30;99.90
15355;DHT22;7777;52.254;9.618;2023-11-22T08:03:02;1.30;99.90
15355;DHT22;7777;52.254;9.618;2023-11-22T08:05:29;1.30;99.90
15355;DHT22;7777;52.254;9.618;2023-11-22T08:08:01;1.30;99.90
15355;DHT22;7777;52.254;9.618;2023-11-22T08:10:36;1.40;99.90
15355;DHT22;7777;52.254;9.618;2023-11-22T08:13:03;1.40;99.90
15355;DHT22;7777;52.254;9.618;2023-11-22T08:15:29;1.40;99.90
15355;DHT22;7777;52.254;9.618;2023-11-22T08:17:57;1.40;99.90
15355;DHT22;7777;52.254;9.618;2023-11-22T08:20:24;1.50;99.90
15355;DHT22;7777;52.254;9.618;2023-11-22T08:22:50;1.50;99.90
15355;DHT22;7777;52.254;9.618;2023-11-22T08:25:16;1.50;99.90
15355;DHT22;7777;52.254;9.618;2023-11-22T08:27:42;1.60;99.90
15355;DHT22;7777;52.254;9.618;2023-11-22T08:30:09;1.60;99.90
15355;DHT22;7777;52.254;9.618;2023-11-22T08:32:42;1.60;99.90
15355;DHT22;7777;52.254;9.618;2023-11-22T08:35:10;1.70;99.90
15355;DHT22;7777;52.254;9.618;2023-11-22T08:37:36;1.70;99.90
15355;DHT22;7777;52.254;9.618;2023-11-22T08:40:06;1.70;99.90
15355;DHT22;7777;52.254;9.618;2023-11-22T08:42:34;1.80;99.90
15355;DHT22;7777;52.254;9.618;2023-11-22T08:45:01;1.80;99.90
15355;DHT22;7777;52.254;9.618;2023-11-22T08:47:28;1.90;99.90
15355;DHT22;7777;52.254;9.618;2023-11-22T08:49:54;1.90;99.90
15355;DHT22;7777;52.254;9.618;2023-11-22T08:52:21;1.90;99.90
15355;DHT22;7777;52.254;9.618;2023-11-22T08:54:48;2.00;99.90
15355;DHT22;7777;52.254;9.618;2023-11-22T08:57:15;2.00;99.90
15355;DHT22;7777;52.254;9.618;2023-11-22T08:59:41;2.00;99.90
15355;DHT22;7777;52.254;9.618;2023-11-22T09:02:06;2.10;99.90
15355;DHT22;7777;52.254;9.618;2023-11-22T09:04:33;2.10;99.90
15355;DHT22;7777;52.254;9.618;2023-11-22T09:06:59;2.20;99.90
15355;DHT22;7777;52.254;9.618;2023-11-22T09:09:26;2.20;99.90
15355;DHT22;7777;52.254;9.618;2023-11-22T09:11:57;2.20;99.90
15355;DHT22;7777;52.254;9.618;2023-11-22T09:14:23;2.30;99.90
15355;DHT22;7777;52.254;9.618;2023-11-22T09:16:50;2.30;99.90
15355;DHT22;7777;52.254;9.618;2023-11-22T09:19:22;2.30;99.90
15355;DHT22;7777;52.254;9.618;2023-11-22T09:21:48;2.40;99.90
15355;DHT22;7777;52.254;9.618;2023-11-22T09:24:15;2.40;99.90
15355;DHT22;7777;52.254;9.618;2023-11-22T09:26:40;2.40;99.90
15355;DHT22;7777;52.254;9.618;2023-11-22T09:29:07;2.50;99.90
15355;DHT22;7777;52.254;9.618;2023-11-22T09:31:35;2.50;99.90
15355;DHT22;7777;52.254;9.618;2023-11-22T09:34:02;2.60;99.90
15355;DHT22;7777;52.254;9.618;2023-11-22T09:36:29;2.60;99.90
15355;DHT22;7777;52.254;9.618;2023-11-22T09:38:58;2.60;99.90
15355;DHT22;7777;52.254;9.618;2023-11-22T09:41:24;2.70;99.90
15355;DHT22;7777;52.254;9.618;2023-11-22T09:43:53;2.70;99.90
15355;DHT22;7777;52.254;9.618;2023-11-22T09:46:19;2.80;99.90
15355;DHT22;7777;52.254;9.618;2023-11-22T09:48:49;2.80;99.90
15355;DHT22;7777;52.254;9.618;2023-11-22T09:51:29;2.80;99.90
15355;DHT22;7777;52.254;9.618;2023-11-22T09:53:59;2.90;99.90
15355;DHT22;7777;52.254;9.618;2023-11-22T09:56:30;2.90;99.90
15355;DHT22;7777;52.254;9.618;2023-11-22T09:59:00;2.90;99.90
15355;DHT22;7777;52.254;9.618;2023-11-22T10:01:29;3.00;99.90
15355;DHT22;7777;52.254;9.618;2023-11-22T10:04:02;2.90;99.90
15355;DHT22;7777;52.254;9.618;2023-11-22T10:06:31;3.00;99.90
15355;DHT22;7777;52.254;9.618;2023-11-22T10:09:02;3.00;99.90
15355;DHT22;7777;52.254;9.618;2023-11-22T10:11:35;3.10;99.90
15355;DHT22;7777;52.254;9.618;2023-11-22T10:14:08;3.10;99.90
15355;DHT22;7777;52.254;9.618;2023-11-22T10:16:35;3.10;99.90
15355;DHT22;7777;52.254;9.618;2023-11-22T10:19:00;3.10;99.90
15355;DHT22;7777;52.254;9.618;2023-11-22T10:21:28;3.10;99.90
15355;DHT22;7777;52.254;9.618;2023-11-22T10:24:03;3.20;99.90
15355;DHT22;7777;52.254;9.618;2023-11-22T10:26:29;3.20;99.90
15355;DHT22;7777;52.254;9.618;2023-11-22T10:28:56;3.20;99.90
15355;DHT22;7777;52.254;9.618;2023-11-22T10:31:23;3.30;99.90
15355;DHT22;7777;52.254;9.618;2023-11-22T10:33:49;3.30;99.90
15355;DHT22;7777;52.254;9.618;2023-11-22T10:36:16;3.30;99.90
15355;DHT22;7777;52.254;9.618;2023-11-22T10:38:46;3.30;99.90
15355;DHT22;7777;52.254;9.618;2023-11-22T10:41:13;3.30;99.90
15355;DHT22;7777;52.254;9.618;2023-11-22T10:43:39;3.40;99.90
15355;DHT22;7777;52.254;9.618;2023-11-22T10:46:08;3.40;99.90
15355;DHT22;7777;52.254;9.618;2023-11-22T10:48:37;3.40;99.90
15355;DHT22;7777;52.254;9.618;2023-11-22T10:51:05;3.40;99.90
15355;DHT22;7777;52.254;9.618;2023-11-22T10:53:33;3.50;99.90
15355;DHT22;7777;52.254;9.618;2023-11-22T10:56:11;3.40;99.90
15355;DHT22;7777;52.254;9.618;2023-11-22T10:58:49;3.50;99.90
15355;DHT22;7777;52.254;9.618;2023-11-22T11:01:19;3.50;99.90
15355;DHT22;7777;52.254;9.618;2023-11-22T11:04:08;3.50;99.90
15355;DHT22;7777;52.254;9.618;2023-11-22T11:06:37;3.50;99.90
15355;DHT22;7777;52.254;9.618;2023-11-22T11:09:06;3.50;99.90
15355;DHT22;7777;52.254;9.618;2023-11-22T11:11:35;3.50;99.90
15355;DHT22;7777;52.254;9.618;2023-11-22T11:14:05;3.50;99.90
15355;DHT22;7777;52.254;9.618;2023-11-22T11:16:36;3.50;99.90
15355;DHT22;7777;52.254;9.618;2023-11-22T11:19:07;3.50;99.90
15355;DHT22;7777;52.254;9.618;2023-11-22T11:21:33;3.50;99.90
15355;DHT22;7777;52.254;9.618;2023-11-22T11:23:59;3.50;99.90
15355;DHT22;7777;52.254;9.618;2023-11-22T11:26:28;3.60;99.90
15355;DHT22;7777;52.254;9.618;2023-11-22T11:28:57;3.60;99.90
15355;DHT22;7777;52.254;9.618;2023-11-22T11:31:23;3.60;99.90
15355;DHT22;7777;52.254;9.618;2023-11-22T11:36:23;3.60;99.90
15355;DHT22;7777;52.254;9.618;2023-11-22T11:38:51;3.60;99.90
15355;DHT22;7777;52.254;9.618;2023-11-22T11:41:18;3.60;99.90
15355;DHT22;7777;52.254;9.618;2023-11-22T11:43:48;3.60;99.90
15355;DHT22;7777;52.254;9.618;2023-11-22T11:46:15;3.70;99.90
15355;DHT22;7777;52.254;9.618;2023-11-22T11:48:47;3.70;99.90
15355;DHT22;7777;52.254;9.618;2023-11-22T11:51:17;3.70;99.90
15355;DHT22;7777;52.254;9.618;2023-11-22T11:53:45;3.70;99.90
15355;DHT22;7777;52.254;9.618;2023-11-22T11:56:11;3.70;99.90
15355;DHT22;7777;52.254;9.618;2023-11-22T11:58:38;3.70;99.90
15355;DHT22;7777;52.254;9.618;2023-11-22T12:01:05;3.80;99.90
15355;DHT22;7777;52.254;9.618;2023-11-22T12:03:32;3.80;99.90
15355;DHT22;7777;52.254;9.618;2023-11-22T12:06:01;3.80;99.90
15355;DHT22;7777;52.254;9.618;2023-11-22T12:08:27;3.80;99.90
15355;DHT22;7777;52.254;9.618;2023-11-22T12:10:56;3.80;99.90
15355;DHT22;7777;52.254;9.618;2023-11-22T12:13:24;3.80;99.90
15355;DHT22;7777;52.254;9.618;2023-11-22T12:15:51;3.80;99.90
15355;DHT22;7777;52.254;9.618;2023-11-22T12:18:19;3.80;99.90
15355;DHT22;7777;52.254;9.618;2023-11-22T12:20:58;3.90;99.90
15355;DHT22;7777;52.254;9.618;2023-11-22T12:23:25;3.90;99.90
15355;DHT22;7777;52.254;9.618;2023-11-22T12:26:00;3.80;99.90
15355;DHT22;7777;52.254;9.618;2023-11-22T12:28:28;3.90;99.90
15355;DHT22;7777;52.254;9.618;2023-11-22T12:30:55;3.90;99.90
15355;DHT22;7777;52.254;9.618;2023-11-22T12:33:35;3.90;99.90
15355;DHT22;7777;52.254;9.618;2023-11-22T12:36:03;3.90;99.90
15355;DHT22;7777;52.254;9.618;2023-11-22T12:38:29;3.90;99.90
15355;DHT22;7777;52.254;9.618;2023-11-22T12:40:57;3.90;99.90
15355;DHT22;7777;52.254;9.618;2023-11-22T12:43:23;3.90;99.90
15355;DHT22;7777;52.254;9.618;2023-11-22T12:46:05;3.90;99.90
15355;DHT22;7777;52.254;9.618;2023-11-22T12:48:41;3.90;99.90
15355;DHT22;7777;52.254;9.618;2023-11-22T12:51:17;3.90;99.90
15355;DHT22;7777;52.254;9.618;2023-11-22T12:53:46;4.00;99.90
15355;DHT22;7777;52.254;9.618;2023-11-22T12:56:13;4.00;99.90
15355;DHT22;7777;52.254;9.618;2023-11-22T12:58:39;4.00;99.90
15355;DHT22;7777;52.254;9.618;2023-11-22T13:01:04;4.00;99.90
15355;DHT22;7777;52.254;9.618;2023-11-22T13:03:30;4.10;99.90
15355;DHT22;7777;52.254;9.618;2023-11-22T13:05:57;4.00;99.90
15355;DHT22;7777;52.254;9.618;2023-11-22T13:08:23;4.00;99.90
15355;DHT22;7777;52.254;9.618;2023-11-22T13:10:54;4.00;99.90
15355;DHT22;7777;52.254;9.618;2023-11-22T13:13:24;4.00;99.90
15355;DHT22;7777;52.254;9.618;2023-11-22T13:15:53;4.00;99.90
15355;DHT22;7777;52.254;9.618;2023-11-22T13:18:19;4.00;99.90
15355;DHT22;7777;52.254;9.618;2023-11-22T13:20:46;4.00;99.90
15355;DHT22;7777;52.254;9.618;2023-11-22T13:23:12;4.00;99.90
15355;DHT22;7777;52.254;9.618;2023-11-22T13:25:39;4.00;99.90
15355;DHT22;7777;52.254;9.618;2023-11-22T13:28:06;4.00;99.90
15355;DHT22;7777;52.254;9.618;2023-11-22T13:30:32;4.00;99.90
15355;DHT22;7777;52.254;9.618;2023-11-22T13:32:58;4.00;99.90
15355;DHT22;7777;52.254;9.618;2023-11-22T13:35:26;4.00;99.90
15355;DHT22;7777;52.254;9.618;2023-11-22T13:38:02;4.00;99.90
15355;DHT22;7777;52.254;9.618;2023-11-22T13:40:32;4.00;99.90
15355;DHT22;7777;52.254;9.618;2023-11-22T13:42:59;4.10;99.90
15355;DHT22;7777;52.254;9.618;2023-11-22T13:45:25;4.00;99.90
15355;DHT22;7777;52.254;9.618;2023-11-22T13:47:54;4.00;99.90
15355;DHT22;7777;52.254;9.618;2023-11-22T13:50:26;4.00;99.90
15355;DHT22;7777;52.254;9.618;2023-11-22T13:52:53;4.00;99.90
15355;DHT22;7777;52.254;9.618;2023-11-22T13:55:20;4.00;99.90
15355;DHT22;7777;52.254;9.618;2023-11-22T13:57:52;4.00;99.90
15355;DHT22;7777;52.254;9.618;2023-11-22T14:00:20;4.00;99.90
15355;DHT22;7777;52.254;9.618;2023-11-22T14:02:53;4.00;99.90
15355;DHT22;7777;52.254;9.618;2023-11-22T14:05:24;4.00;99.90
15355;DHT22;7777;52.254;9.618;2023-11-22T14:07:51;4.00;99.90
15355;DHT22;7777;52.254;9.618;2023-11-22T14:10:17;4.00;99.90
15355;DHT22;7777;52.254;9.618;2023-11-22T14:12:44;4.00;99.90
15355;DHT22;7777;52.254;9.618;2023-11-22T14:15:11;4.00;99.90
15355;DHT22;7777;52.254;9.618;2023-11-22T14:17:37;4.00;99.90
15355;DHT22;7777;52.254;9.618;2023-11-22T14:20:10;3.90;99.90
15355;DHT22;7777;52.254;9.618;2023-11-22T14:22:37;3.90;99.90
15355;DHT22;7777;52.254;9.618;2023-11-22T14:25:05;4.00;99.90
15355;DHT22;7777;52.254;9.618;2023-11-22T14:27:43;4.00;99.90
15355;DHT22;7777;52.254;9.618;2023-11-22T14:30:11;3.90;99.90
15355;DHT22;7777;52.254;9.618;2023-11-22T14:32:43;3.90;99.90
15355;DHT22;7777;52.254;9.618;2023-11-22T14:35:09;3.90;99.90
15355;DHT22;7777;52.254;9.618;2023-11-22T14:37:36;3.90;99.90
15355;DHT22;7777;52.254;9.618;2023-11-22T14:40:07;3.90;99.90
15355;DHT22;7777;52.254;9.618;2023-11-22T14:42:45;3.90;99.90
15355;DHT22;7777;52.254;9.618;2023-11-22T14:45:12;3.90;99.90
15355;DHT22;7777;52.254;9.618;2023-11-22T14:47:38;3.90;99.90
15355;DHT22;7777;52.254;9.618;2023-11-22T14:50:06;3.90;99.90
15355;DHT22;7777;52.254;9.618;2023-11-22T14:52:35;3.90;99.90
15355;DHT22;7777;52.254;9.618;2023-11-22T14:55:01;3.90;99.90
15355;DHT22;7777;52.254;9.618;2023-11-22T14:57:27;3.90;99.90
15355;DHT22;7777;52.254;9.618;2023-11-22T14:59:56;3.80;99.90
15355;DHT22;7777;52.254;9.618;2023-11-22T15:02:22;3.80;99.90
15355;DHT22;7777;52.254;9.618;2023-11-22T15:04:47;3.80;99.90
15355;DHT22;7777;52.254;9.618;2023-11-22T15:07:13;3.80;99.90
15355;DHT22;7777;52.254;9.618;2023-11-22T15:09:40;3.80;99.90
15355;DHT22;7777;52.254;9.618;2023-11-22T15:12:07;3.80;99.90
15355;DHT22;7777;52.254;9.618;2023-11-22T15:14:36;3.80;99.90
15355;DHT22;7777;52.254;9.618;2023-11-22T15:17:02;3.80;99.90
15355;DHT22;7777;52.254;9.618;2023-11-22T15:19:31;3.80;99.90
15355;DHT22;7777;52.254;9.618;2023-11-22T15:21:57;3.80;99.90
15355;DHT22;7777;52.254;9.618;2023-11-22T15:24:24;3.80;99.90
15355;DHT22;7777;52.254;9.618;2023-11-22T15:26:49;3.80;99.90
15355;DHT22;7777;52.254;9.618;2023-11-22T15:29:15;3.80;99.90
15355;DHT22;7777;52.254;9.618;2023-11-22T15:31:43;3.80;99.90
15355;DHT22;7777;52.254;9.618;2023-11-22T15:34:09;3.80;99.90
15355;DHT22;7777;52.254;9.618;2023-11-22T15:36:36;3.80;99.90
15355;DHT22;7777;52.254;9.618;2023-11-22T15:39:02;3.80;99.90
15355;DHT22;7777;52.254;9.618;2023-11-22T15:41:28;3.80;99.90
15355;DHT22;7777;52.254;9.618;2023-11-22T15:43:54;3.70;99.90
15355;DHT22;7777;52.254;9.618;2023-11-22T15:46:20;3.70;99.90
15355;DHT22;7777;52.254;9.618;2023-11-22T15:48:52;3.80;99.90
15355;DHT22;7777;52.254;9.618;2023-11-22T15:51:18;3.70;99.90
15355;DHT22;7777;52.254;9.618;2023-11-22T15:53:44;3.70;99.90
15355;DHT22;7777;52.254;9.618;2023-11-22T15:56:09;3.80;99.90
15355;DHT22;7777;52.254;9.618;2023-11-22T15:58:45;3.70;99.90
15355;DHT22;7777;52.254;9.618;2023-11-22T16:01:12;3.70;99.90
15355;DHT22;7777;52.254;9.618;2023-11-22T16:03:38;3.70;99.90
15355;DHT22;7777;52.254;9.618;2023-11-22T16:06:05;3.70;99.90